createdAt,value
2022-11-10T00:00:26.609Z,14.30
2022-11-10T00:03:14.469Z,14.30
2022-11-10T00:06:06.714Z,14.30
2022-11-10T00:08:54.182Z,14.30
2022-11-10T00:11:42.431Z,14.30
2022-11-10T00:14:49.066Z,14.30
2022-11-10T00:17:37.459Z,14.30
2022-11-10T00:20:24.887Z,14.30
2022-11-10T00:23:12.664Z,14.30
2022-11-10T00:26:00.850Z,14.30
2022-11-10T00:28:48.488Z,14.30
2022-11-10T00:31:39.112Z,14.30
2022-11-10T00:34:26.449Z,14.40
2022-11-10T00:37:14.087Z,14.30
2022-11-10T00:40:01.716Z,14.30
2022-11-10T00:42:49.438Z,14.30
2022-11-10T00:45:36.788Z,14.30
2022-11-10T00:48:25.900Z,14.30
2022-11-10T00:51:19.509Z,14.30
2022-11-10T00:54:07.538Z,14.30
2022-11-10T00:56:55.273Z,14.40
2022-11-10T00:59:42.843Z,14.40
2022-11-10T01:02:30.420Z,14.40
2022-11-10T01:05:19.494Z,14.50
2022-11-10T01:08:07.250Z,14.50
2022-11-10T01:11:01.965Z,14.50
2022-11-10T01:13:52.297Z,14.50
2022-11-10T01:16:39.851Z,14.50
2022-11-10T01:19:27.410Z,14.50
2022-11-10T01:22:16.603Z,14.50
2022-11-10T01:25:04.532Z,14.60
2022-11-10T01:27:52.338Z,14.50
2022-11-10T01:30:40.156Z,14.50
2022-11-10T01:33:28.199Z,14.50
2022-11-10T01:36:16.033Z,14.60
2022-11-10T01:39:05.058Z,14.50
2022-11-10T01:41:52.744Z,14.50
2022-11-10T01:44:42.828Z,14.50
2022-11-10T01:47:30.677Z,14.50
2022-11-10T01:50:19.755Z,14.50
2022-11-10T01:53:11.943Z,14.50
2022-11-10T01:56:01.578Z,14.50
2022-11-10T01:58:56.978Z,14.50
2022-11-10T02:01:45.078Z,14.50
2022-11-10T02:04:32.799Z,14.50
2022-11-10T02:07:20.575Z,14.50
2022-11-10T02:10:16.175Z,14.50
2022-11-10T02:13:05.453Z,14.40
2022-11-10T02:15:53.488Z,14.50
2022-11-10T02:18:41.363Z,14.50
2022-11-10T02:21:30.064Z,14.50
2022-11-10T02:24:17.963Z,14.40
2022-11-10T02:27:05.603Z,14.50
2022-11-10T02:29:54.165Z,14.50
2022-11-10T02:32:41.627Z,14.50
2022-11-10T02:35:29.167Z,14.50
2022-11-10T02:38:18.065Z,14.50
2022-11-10T02:41:05.577Z,14.50
2022-11-10T02:43:53.844Z,14.50
2022-11-10T02:46:41.766Z,14.50
2022-11-10T02:49:29.264Z,14.50
2022-11-10T02:52:16.792Z,14.50
2022-11-10T02:55:06.598Z,14.50
2022-11-10T02:57:53.946Z,14.50
2022-11-10T03:00:41.523Z,14.50
2022-11-10T03:03:29.212Z,14.60
2022-11-10T03:06:16.514Z,14.60
2022-11-10T03:09:06.816Z,14.60
2022-11-10T03:11:55.807Z,14.60
2022-11-10T03:14:43.551Z,14.60
2022-11-10T03:17:31.191Z,14.60
2022-11-10T03:20:19.959Z,14.60
2022-11-10T03:23:08.186Z,14.60
2022-11-10T03:25:55.994Z,14.60
2022-11-10T03:28:44.911Z,14.60
2022-11-10T03:31:32.272Z,14.60
2022-11-10T03:34:19.838Z,14.60
2022-11-10T03:37:07.442Z,14.60
2022-11-10T03:39:54.958Z,14.60
2022-11-10T03:42:45.982Z,14.60
2022-11-10T03:45:35.091Z,14.60
2022-11-10T03:48:22.696Z,14.60
2022-11-10T03:51:10.434Z,14.60
2022-11-10T03:53:58.096Z,14.60
2022-11-10T03:56:45.487Z,14.60
2022-11-10T03:59:33.162Z,14.60
2022-11-10T04:02:22.298Z,14.60
2022-11-10T04:05:28.072Z,14.60
2022-11-10T04:08:36.045Z,14.60
2022-11-10T04:11:37.412Z,14.60
2022-11-10T04:14:53.438Z,14.60
2022-11-10T04:17:42.626Z,14.60
2022-11-10T04:20:30.256Z,14.70
2022-11-10T04:23:31.076Z,14.70
2022-11-10T04:26:30.394Z,14.60
2022-11-10T04:29:19.824Z,14.70
2022-11-10T04:32:08.519Z,14.70
2022-11-10T04:34:57.525Z,14.70
2022-11-10T04:37:47.402Z,14.80
2022-11-10T04:40:34.922Z,14.80
2022-11-10T04:43:22.752Z,14.80
2022-11-10T04:46:20.605Z,14.80
2022-11-10T04:49:09.135Z,14.80
2022-11-10T04:51:58.027Z,14.90
2022-11-10T04:54:45.679Z,14.90
2022-11-10T04:57:33.351Z,15.00
2022-11-10T05:00:21.108Z,15.00
2022-11-10T05:03:11.326Z,15.00
2022-11-10T05:05:58.672Z,15.00
2022-11-10T05:08:47.881Z,15.00
2022-11-10T05:11:35.471Z,15.00
2022-11-10T05:14:22.785Z,15.00
2022-11-10T05:17:10.160Z,15.00
2022-11-10T05:19:57.875Z,15.00
2022-11-10T05:22:49.133Z,15.00
2022-11-10T05:25:39.452Z,14.90
2022-11-10T05:28:27.007Z,14.90
2022-11-10T05:31:14.876Z,14.90
2022-11-10T05:34:02.467Z,14.90
2022-11-10T05:36:50.139Z,14.90
2022-11-10T05:39:37.832Z,14.90
2022-11-10T05:42:27.610Z,14.90
2022-11-10T05:45:15.824Z,14.90
2022-11-10T05:48:03.398Z,14.90
2022-11-10T05:50:50.633Z,14.90
2022-11-10T05:53:37.976Z,14.90
2022-11-10T05:56:25.591Z,14.90
2022-11-10T05:59:14.747Z,15.00
2022-11-10T06:02:02.138Z,15.00
2022-11-10T06:04:49.617Z,15.00
2022-11-10T06:07:38.861Z,14.90
2022-11-10T06:10:26.904Z,14.90
2022-11-10T06:13:14.272Z,14.90
2022-11-10T06:16:03.340Z,14.90
2022-11-10T06:18:50.769Z,14.90
2022-11-10T06:21:38.558Z,14.90
2022-11-10T06:24:26.252Z,15.00
2022-11-10T06:27:13.684Z,15.00
2022-11-10T06:30:01.474Z,15.00
2022-11-10T06:32:50.974Z,15.00
2022-11-10T06:35:38.232Z,15.00
2022-11-10T06:38:25.716Z,15.00
2022-11-10T06:41:13.161Z,15.00
2022-11-10T06:44:00.857Z,15.10
2022-11-10T06:46:48.122Z,15.10
2022-11-10T06:49:37.210Z,15.10
2022-11-10T06:52:24.796Z,15.10
2022-11-10T06:55:12.373Z,15.10
2022-11-10T06:57:59.938Z,15.10
2022-11-10T07:00:48.326Z,15.10
2022-11-10T07:03:44.450Z,15.20
2022-11-10T07:06:42.660Z,15.20
2022-11-10T07:09:30.416Z,15.20
2022-11-10T07:12:17.798Z,15.20
2022-11-10T07:15:05.731Z,15.20
2022-11-10T07:17:53.655Z,15.20
2022-11-10T07:20:41.847Z,15.20
2022-11-10T07:23:30.599Z,15.20
2022-11-10T07:26:17.837Z,15.20
2022-11-10T07:29:05.589Z,15.20
2022-11-10T07:31:53.086Z,15.20
2022-11-10T07:34:40.328Z,15.20
2022-11-10T07:37:28.082Z,15.20
2022-11-10T07:40:17.871Z,15.20
2022-11-10T07:43:05.739Z,15.20
2022-11-10T07:45:53.810Z,15.20
2022-11-10T07:48:41.602Z,15.20
2022-11-10T07:51:30.828Z,15.20
2022-11-10T07:54:18.312Z,15.20
2022-11-10T07:57:07.278Z,15.20
2022-11-10T07:59:57.895Z,15.30
2022-11-10T08:02:45.585Z,15.20
2022-11-10T08:05:33.832Z,15.20
2022-11-10T08:08:21.240Z,15.20
2022-11-10T08:11:08.860Z,15.20
2022-11-10T08:13:57.811Z,15.20
2022-11-10T08:16:45.648Z,15.30
2022-11-10T08:19:33.265Z,15.30
2022-11-10T08:22:20.599Z,15.30
2022-11-10T08:25:08.704Z,15.30
2022-11-10T08:28:00.662Z,15.30
2022-11-10T08:30:49.908Z,15.40
2022-11-10T08:33:37.649Z,15.50
2022-11-10T08:36:25.364Z,15.50
2022-11-10T08:39:24.853Z,15.50
2022-11-10T08:42:21.765Z,15.60
2022-11-10T08:45:10.309Z,15.60
2022-11-10T08:48:03.220Z,15.70
2022-11-10T08:50:51.633Z,15.70
2022-11-10T08:53:39.268Z,15.80
2022-11-10T08:56:27.911Z,15.80
2022-11-10T08:59:15.358Z,15.80
2022-11-10T09:02:03.177Z,15.80
2022-11-10T09:04:51.969Z,15.90
2022-11-10T09:07:45.272Z,15.90
2022-11-10T09:10:32.743Z,15.80
2022-11-10T09:13:26.287Z,15.90
2022-11-10T09:16:16.356Z,15.90
2022-11-10T09:19:03.753Z,16.00
2022-11-10T09:21:52.473Z,16.00
2022-11-10T09:24:39.908Z,16.00
2022-11-10T09:27:27.448Z,16.10
2022-11-10T09:30:17.883Z,16.10
2022-11-10T09:33:05.979Z,16.10
2022-11-10T09:35:59.024Z,16.20
2022-11-10T09:38:47.947Z,16.20
2022-11-10T09:41:39.519Z,16.20
2022-11-10T09:44:30.978Z,16.30
2022-11-10T09:47:50.633Z,16.30
2022-11-10T09:50:38.593Z,16.40
2022-11-10T09:53:30.357Z,16.50
2022-11-10T09:56:22.871Z,16.60
2022-11-10T09:59:17.695Z,16.60
2022-11-10T10:02:11.008Z,16.60
2022-11-10T10:05:31.303Z,16.70
2022-11-10T10:08:27.826Z,16.70
2022-11-10T10:11:27.708Z,16.70
2022-11-10T10:14:46.012Z,16.70
2022-11-10T10:17:41.594Z,16.60
2022-11-10T10:20:36.470Z,16.60
2022-11-10T10:24:02.270Z,16.60
2022-11-10T10:26:46.579Z,16.50
2022-11-10T10:29:39.107Z,16.60
2022-11-10T10:32:28.350Z,16.60
2022-11-10T10:35:18.048Z,16.60
2022-11-10T10:38:12.249Z,16.70
2022-11-10T10:41:04.119Z,16.70
2022-11-10T10:43:56.339Z,16.70
2022-11-10T10:46:47.469Z,16.80
2022-11-10T10:49:36.383Z,16.80
2022-11-10T10:52:25.442Z,16.80
2022-11-10T10:55:14.983Z,16.90
2022-11-10T10:58:05.790Z,16.90
2022-11-10T11:00:59.665Z,16.90
2022-11-10T11:03:48.801Z,17.00
2022-11-10T11:06:37.063Z,17.10
2022-11-10T11:09:26.435Z,17.20
2022-11-10T11:12:15.891Z,17.20
2022-11-10T11:15:15.025Z,17.20
2022-11-10T11:18:11.970Z,17.20
2022-11-10T11:21:10.463Z,17.40
2022-11-10T11:24:10.381Z,17.40
2022-11-10T11:27:02.728Z,17.50
2022-11-10T11:30:05.709Z,17.60
2022-11-10T11:33:24.917Z,17.70
2022-11-10T11:36:23.820Z,17.70
2022-11-10T11:39:22.076Z,17.70
2022-11-10T11:42:21.884Z,17.70
2022-11-10T11:45:17.991Z,17.70
2022-11-10T11:48:21.325Z,17.60
2022-11-10T11:51:17.960Z,17.60
2022-11-10T11:54:30.281Z,17.50
2022-11-10T11:57:28.639Z,17.50
2022-11-10T12:00:18.493Z,17.40
2022-11-10T12:03:27.118Z,17.40
2022-11-10T12:06:31.014Z,17.40
2022-11-10T12:09:30.225Z,17.50
2022-11-10T12:12:42.609Z,17.50
2022-11-10T12:15:37.604Z,17.50
2022-11-10T12:18:36.417Z,17.60
2022-11-10T12:21:26.984Z,17.60
2022-11-10T12:24:40.471Z,17.60
2022-11-10T12:27:33.558Z,17.60
2022-11-10T12:30:21.670Z,17.70
2022-11-10T12:33:18.050Z,17.70
2022-11-10T12:36:13.129Z,17.70
2022-11-10T12:39:06.181Z,17.70
2022-11-10T12:41:59.311Z,17.70
2022-11-10T12:45:00.334Z,17.70
2022-11-10T12:47:49.274Z,17.70
2022-11-10T12:50:46.656Z,17.70
2022-11-10T12:53:39.500Z,17.70
2022-11-10T12:56:33.230Z,17.70
2022-11-10T12:59:29.068Z,17.70
2022-11-10T13:02:29.783Z,17.70
2022-11-10T13:05:33.658Z,17.70
2022-11-10T13:08:37.378Z,17.70
2022-11-10T13:11:29.144Z,17.80
2022-11-10T13:14:24.962Z,17.80
2022-11-10T13:17:28.172Z,17.80
2022-11-10T13:20:52.769Z,17.80
2022-11-10T13:24:16.796Z,17.80
2022-11-10T13:27:07.005Z,17.70
2022-11-10T13:29:59.629Z,17.70
2022-11-10T13:32:47.276Z,17.60
2022-11-10T13:35:55.499Z,17.60
2022-11-10T13:38:46.083Z,17.60
2022-11-10T13:41:35.773Z,17.60
2022-11-10T13:44:29.780Z,17.60
2022-11-10T13:47:44.472Z,17.60
2022-11-10T13:50:48.763Z,17.60
2022-11-10T13:53:46.593Z,17.60
2022-11-10T13:57:11.698Z,17.60
2022-11-10T14:00:03.578Z,17.60
2022-11-10T14:02:52.139Z,17.60
2022-11-10T14:06:06.885Z,17.70
2022-11-10T14:08:58.027Z,17.60
2022-11-10T14:11:50.489Z,17.60
2022-11-10T14:14:51.375Z,17.60
2022-11-10T14:17:47.981Z,17.50
2022-11-10T14:20:42.174Z,17.50
2022-11-10T14:23:34.975Z,17.50
2022-11-10T14:26:28.374Z,17.50
2022-11-10T14:29:28.548Z,17.50
2022-11-10T14:32:20.140Z,17.50
2022-11-10T14:35:20.601Z,17.50
2022-11-10T14:38:20.372Z,17.50
2022-11-10T14:41:16.432Z,17.50
2022-11-10T14:44:06.555Z,17.50
2022-11-10T14:46:54.673Z,17.50
2022-11-10T14:49:43.930Z,17.50
2022-11-10T14:52:33.422Z,17.50
2022-11-10T14:55:23.931Z,17.40
2022-11-10T14:58:15.988Z,17.40
2022-11-10T15:01:05.700Z,17.40
2022-11-10T15:03:54.070Z,17.40
2022-11-10T15:06:46.888Z,17.40
2022-11-10T15:09:36.383Z,17.40
2022-11-10T15:12:27.918Z,17.40
2022-11-10T15:15:23.427Z,17.40
2022-11-10T15:18:27.095Z,17.40
2022-11-10T15:21:17.423Z,17.40
2022-11-10T15:24:07.653Z,17.40
2022-11-10T15:26:56.548Z,17.40
2022-11-10T15:29:44.057Z,17.40
2022-11-10T15:32:36.174Z,17.40
2022-11-10T15:35:30.856Z,17.30
2022-11-10T15:38:31.895Z,17.30
2022-11-10T15:41:27.585Z,17.40
2022-11-10T15:44:19.867Z,17.30
2022-11-10T15:47:08.120Z,17.30
2022-11-10T15:49:56.094Z,17.40
2022-11-10T15:52:43.906Z,17.30
2022-11-10T15:55:34.487Z,17.30
2022-11-10T15:58:23.905Z,17.30
2022-11-10T16:01:14.340Z,17.30
2022-11-10T16:04:02.036Z,17.30
2022-11-10T16:06:49.975Z,17.30
2022-11-10T16:09:37.905Z,17.30
2022-11-10T16:12:25.623Z,17.30
2022-11-10T16:15:19.387Z,17.30
2022-11-10T16:18:13.199Z,17.20
2022-11-10T16:21:00.907Z,17.20
2022-11-10T16:23:53.041Z,17.20
2022-11-10T16:26:40.959Z,17.30
2022-11-10T16:29:28.480Z,17.20
2022-11-10T16:32:16.187Z,17.20
2022-11-10T16:35:05.077Z,17.20
2022-11-10T16:37:52.903Z,17.20
2022-11-10T16:40:40.693Z,17.20
2022-11-10T16:43:30.044Z,17.20
2022-11-10T16:46:21.050Z,17.10
2022-11-10T16:49:22.668Z,17.10
2022-11-10T16:52:15.935Z,17.10
2022-11-10T16:55:03.504Z,17.10
2022-11-10T16:57:51.012Z,17.10
2022-11-10T17:00:39.325Z,17.10
2022-11-10T17:03:32.779Z,17.10
2022-11-10T17:06:21.661Z,17.00
2022-11-10T17:09:15.826Z,17.00
2022-11-10T17:12:03.154Z,17.10
2022-11-10T17:14:50.373Z,17.00
2022-11-10T17:17:39.574Z,17.00
2022-11-10T17:20:33.278Z,17.00
2022-11-10T17:23:24.522Z,17.00
2022-11-10T17:26:15.886Z,17.00
2022-11-10T17:29:04.229Z,17.00
2022-11-10T17:31:51.830Z,17.00
2022-11-10T17:34:42.113Z,17.00
2022-11-10T17:37:29.781Z,16.90
2022-11-10T17:40:20.815Z,16.90
2022-11-10T17:43:12.333Z,16.90
2022-11-10T17:46:00.039Z,16.80
2022-11-10T17:48:50.597Z,16.80
2022-11-10T17:51:38.642Z,16.70
2022-11-10T17:54:26.602Z,16.70
2022-11-10T17:57:13.953Z,16.80
2022-11-10T18:00:03.048Z,16.80
2022-11-10T18:02:55.375Z,16.70
2022-11-10T18:05:43.500Z,16.70
2022-11-10T18:08:31.062Z,16.70
2022-11-10T18:11:20.367Z,16.70
2022-11-10T18:14:08.225Z,16.70
2022-11-10T18:16:57.583Z,16.60
2022-11-10T18:19:45.243Z,16.60
2022-11-10T18:22:33.127Z,16.70
2022-11-10T18:25:20.991Z,16.70
2022-11-10T18:28:09.257Z,16.70
2022-11-10T18:30:57.156Z,16.70
2022-11-10T18:33:46.703Z,16.70
2022-11-10T18:36:34.502Z,16.70
2022-11-10T18:39:21.991Z,16.70
2022-11-10T18:42:09.418Z,16.60
2022-11-10T18:44:57.195Z,16.60
2022-11-10T18:47:45.136Z,16.60
2022-11-10T18:50:34.551Z,16.60
2022-11-10T18:53:22.258Z,16.60
2022-11-10T18:56:09.985Z,16.60
2022-11-10T18:58:57.621Z,16.60
2022-11-10T19:01:45.511Z,16.60
2022-11-10T19:04:33.085Z,16.60
2022-11-10T19:07:21.896Z,16.70
2022-11-10T19:10:09.739Z,16.70
2022-11-10T19:12:57.707Z,16.70
2022-11-10T19:15:45.603Z,16.70
2022-11-10T19:18:33.302Z,16.70
2022-11-10T19:21:22.902Z,16.70
2022-11-10T19:24:12.502Z,16.70
2022-11-10T19:27:03.594Z,16.60
2022-11-10T19:29:50.793Z,16.60
2022-11-10T19:32:38.704Z,16.60
2022-11-10T19:35:26.835Z,16.60
2022-11-10T19:38:15.262Z,16.50
2022-11-10T19:41:07.652Z,16.50
2022-11-10T19:43:55.532Z,16.40
2022-11-10T19:46:42.904Z,16.40
2022-11-10T19:49:30.260Z,16.40
2022-11-10T19:52:17.950Z,16.40
2022-11-10T19:55:05.651Z,16.30
2022-11-10T19:57:54.686Z,16.30
2022-11-10T20:00:47.567Z,16.40
2022-11-10T20:03:35.080Z,16.40
2022-11-10T20:06:23.865Z,16.40
2022-11-10T20:09:11.540Z,16.40
2022-11-10T20:11:58.959Z,16.40
2022-11-10T20:14:47.901Z,16.40
2022-11-10T20:17:35.919Z,16.40
2022-11-10T20:20:23.246Z,16.40
2022-11-10T20:23:12.941Z,16.40
2022-11-10T20:26:06.137Z,16.40
2022-11-10T20:28:53.621Z,16.40
2022-11-10T20:31:42.927Z,16.40
2022-11-10T20:34:30.905Z,16.40
2022-11-10T20:37:18.485Z,16.50
2022-11-10T20:40:37.604Z,16.50
2022-11-10T20:43:15.538Z,16.50
2022-11-10T20:46:03.880Z,16.40
2022-11-10T20:48:52.993Z,16.50
2022-11-10T20:51:41.967Z,16.50
2022-11-10T20:54:29.651Z,16.50
2022-11-10T20:57:17.490Z,16.50
2022-11-10T21:00:05.906Z,16.50
2022-11-10T21:02:53.396Z,16.50
2022-11-10T21:05:42.617Z,16.50
2022-11-10T21:08:30.861Z,16.50
2022-11-10T21:11:39.060Z,16.50
2022-11-10T21:14:25.542Z,16.50
2022-11-10T21:17:13.266Z,16.50
2022-11-10T21:20:01.033Z,16.50
2022-11-10T21:22:50.000Z,16.50
2022-11-10T21:25:37.587Z,16.60
2022-11-10T21:28:26.317Z,16.50
2022-11-10T21:31:14.150Z,16.60
2022-11-10T21:34:02.036Z,16.50
2022-11-10T21:36:49.526Z,16.50
2022-11-10T21:39:38.804Z,16.50
2022-11-10T21:42:31.579Z,16.50
2022-11-10T21:45:22.547Z,16.50
2022-11-10T21:48:10.837Z,16.50
2022-11-10T21:51:01.495Z,16.40
2022-11-10T21:53:49.447Z,16.50
2022-11-10T21:56:40.046Z,16.40
2022-11-10T21:59:28.003Z,16.40
2022-11-10T22:02:15.947Z,16.40
2022-11-10T22:05:03.308Z,16.40
2022-11-10T22:07:51.022Z,16.40
2022-11-10T22:10:56.707Z,16.40
2022-11-10T22:14:03.662Z,16.40
2022-11-10T22:17:09.803Z,16.40
2022-11-10T22:19:57.351Z,16.40
2022-11-10T22:22:45.459Z,16.50
2022-11-10T22:25:33.477Z,16.40
2022-11-10T22:28:21.400Z,16.50
2022-11-10T22:31:11.536Z,16.50
2022-11-10T22:33:59.254Z,16.50
2022-11-10T22:36:49.304Z,16.50
2022-11-10T22:39:54.083Z,16.50
2022-11-10T22:42:59.001Z,16.50
2022-11-10T22:45:46.544Z,16.40
2022-11-10T22:48:35.711Z,16.40
2022-11-10T22:51:23.564Z,16.40
2022-11-10T22:54:12.291Z,16.40
2022-11-10T22:56:59.920Z,16.40
2022-11-10T22:59:47.431Z,16.40
2022-11-10T23:02:34.804Z,16.40
2022-11-10T23:05:23.757Z,16.40
2022-11-10T23:08:11.744Z,16.40
2022-11-10T23:11:00.860Z,16.30
2022-11-10T23:13:49.912Z,16.40
2022-11-10T23:16:37.440Z,16.30
2022-11-10T23:19:24.919Z,16.40
2022-11-10T23:22:13.815Z,16.30
2022-11-10T23:25:01.369Z,16.40
2022-11-10T23:27:48.831Z,16.40
2022-11-10T23:30:36.230Z,16.40
2022-11-10T23:33:28.710Z,16.40
2022-11-10T23:36:19.875Z,16.40
2022-11-10T23:39:10.068Z,16.40
2022-11-10T23:41:57.641Z,16.40
2022-11-10T23:44:45.167Z,16.40
2022-11-10T23:47:32.896Z,16.40
2022-11-10T23:50:20.182Z,16.40
2022-11-10T23:53:07.502Z,16.40
2022-11-10T23:56:01.215Z,16.40
2022-11-10T23:58:48.699Z,16.40
